Delhi, Michigan
Current Conditions -  °F | °C
As of 1:53 PM on Thursday 30 Oct 2014 (Local Time) from KARB Reporting Station
Overcast Overcast  
Wind Chill:   Ceiling: 4500
Heat Index:   Visibility: 10mi
Dew Point:   Wind: 3mph
Humidity: 52%   Direction: 270°W
Pressure: 30.1"   Gusts: NA
Location:  42.2601°N, 83.8448°W
Report Text: KARB 301753Z 27003KT 10SM OVC045 09/00 A3010 RMK AO2 SLP196 I6000 T00940000 10094 21022 58015
Loading
Personal Weather Stations






























Interactive Weather Map
Tropical Storm Tracking
New forecast layout! Learn more

10-Day Weather Forecast

Advertisements
Track Severe Weather on mobile